createdAt,value
2019-01-13T00:01:03.580Z,5.43
2019-01-13T00:03:33.248Z,5.33
2019-01-13T00:06:09.155Z,5.33
2019-01-13T00:08:38.659Z,4.97
2019-01-13T00:11:08.108Z,5.43
2019-01-13T00:13:37.542Z,5.03
2019-01-13T00:16:09.913Z,5.17
2019-01-13T00:18:39.397Z,4.83
2019-01-13T00:21:08.873Z,6.13
2019-01-13T00:23:38.426Z,5.57
2019-01-13T00:26:35.911Z,6.60
2019-01-13T00:29:29.283Z,5.43
2019-01-13T00:32:04.234Z,5.50
2019-01-13T00:35:00.376Z,6.03
2019-01-13T00:38:10.374Z,5.20
2019-01-13T00:46:22.406Z,5.23
2019-01-13T00:48:51.936Z,5.87
2019-01-13T00:51:21.358Z,5.40
2019-01-13T00:54:10.375Z,4.67
2019-01-13T00:57:18.369Z,5.90
2019-01-13T00:59:48.225Z,5.87
2019-01-13T01:02:20.850Z,6.27
2019-01-13T01:07:40.733Z,7.10
2019-01-13T01:10:48.663Z,6.33
2019-01-13T01:20:02.391Z,6.33
2019-01-13T01:22:45.753Z,5.67
2019-01-13T01:25:17.050Z,5.00
2019-01-13T01:27:46.476Z,5.23
2019-01-13T01:36:42.922Z,5.40
2019-01-13T01:39:12.388Z,5.43
2019-01-13T01:41:41.974Z,5.30
2019-01-13T01:50:18.124Z,5.10
2019-01-13T01:52:58.905Z,4.57
2019-01-13T01:59:07.033Z,4.33
2019-01-13T02:01:36.431Z,3.70
2019-01-13T02:04:05.955Z,4.50
2019-01-13T02:06:54.332Z,4.37
2019-01-13T02:12:59.030Z,3.87
2019-01-13T02:18:20.803Z,3.50
2019-01-13T02:20:50.641Z,3.63
2019-01-13T02:23:27.723Z,5.20
2019-01-13T02:26:26.287Z,3.60
2019-01-13T02:28:57.705Z,3.50
2019-01-13T02:31:47.191Z,3.77
2019-01-13T02:34:42.287Z,3.70
2019-01-13T02:37:48.416Z,3.77
2019-01-13T02:40:41.467Z,3.20
2019-01-13T02:46:13.469Z,3.60
2019-01-13T02:48:49.579Z,3.60
2019-01-13T03:01:03.524Z,3.13
2019-01-13T03:04:12.696Z,3.30
2019-01-13T03:06:46.284Z,3.07
2019-01-13T03:09:18.223Z,3.50
2019-01-13T03:12:08.191Z,3.07
2019-01-13T03:14:50.118Z,4.10
2019-01-13T03:17:20.833Z,3.57
2019-01-13T03:19:53.035Z,3.40
2019-01-13T03:22:35.775Z,3.97
2019-01-13T03:25:15.401Z,4.03
2019-01-13T03:27:47.640Z,4.43
2019-01-13T03:30:46.076Z,4.80
2019-01-13T03:33:43.649Z,4.47
2019-01-13T03:36:23.309Z,3.90
2019-01-13T03:39:02.225Z,3.80
2019-01-13T03:42:16.893Z,4.30
2019-01-13T03:44:39.359Z,4.90
2019-01-13T03:47:19.051Z,4.97
2019-01-13T03:50:16.314Z,4.13
2019-01-13T03:53:06.323Z,5.33
2019-01-13T03:55:55.349Z,4.77
2019-01-13T03:58:36.365Z,6.57
2019-01-13T04:01:18.550Z,4.97
2019-01-13T04:04:03.949Z,4.50
2019-01-13T04:06:37.318Z,5.40
2019-01-13T04:09:13.003Z,5.00
2019-01-13T04:11:48.123Z,5.40
2019-01-13T04:14:20.291Z,5.80
2019-01-13T04:17:10.399Z,5.63
2019-01-13T04:19:51.025Z,5.03
2019-01-13T04:22:21.237Z,4.37
2019-01-13T04:25:13.375Z,4.77
2019-01-13T04:28:06.037Z,5.50
2019-01-13T04:33:39.245Z,4.97
2019-01-13T04:36:11.833Z,4.53
2019-01-13T04:39:02.209Z,4.80
2019-01-13T04:41:38.013Z,5.17
2019-01-13T04:47:05.700Z,4.87
2019-01-13T04:49:57.145Z,4.90
2019-01-13T04:52:38.730Z,4.87
2019-01-13T04:58:47.516Z,4.10
2019-01-13T05:01:19.381Z,4.70
2019-01-13T05:04:11.703Z,4.77
2019-01-13T05:06:42.385Z,4.77
2019-01-13T05:09:12.193Z,5.27
2019-01-13T05:11:42.277Z,4.77
2019-01-13T05:14:12.203Z,4.27
2019-01-13T05:16:42.318Z,4.50
2019-01-13T05:19:12.395Z,4.97
2019-01-13T05:21:42.056Z,5.40
2019-01-13T05:24:38.184Z,4.80
2019-01-13T05:27:11.834Z,4.80
2019-01-13T05:29:41.469Z,4.77
2019-01-13T05:32:11.820Z,4.63
2019-01-13T05:34:44.302Z,4.30
2019-01-13T05:37:13.772Z,4.43
2019-01-13T05:39:43.792Z,4.60
2019-01-13T05:42:13.729Z,4.50
2019-01-13T05:44:47.536Z,4.50
2019-01-13T05:47:17.331Z,4.63
2019-01-13T05:49:50.960Z,5.60
2019-01-13T05:52:20.412Z,3.83
2019-01-13T05:54:50.257Z,5.13
2019-01-13T05:57:38.893Z,4.87
2019-01-13T06:03:10.889Z,4.77
2019-01-13T06:05:43.467Z,4.13
2019-01-13T06:08:15.513Z,4.33
2019-01-13T06:10:49.276Z,5.23
2019-01-13T06:13:19.105Z,4.53
2019-01-13T06:15:51.746Z,4.43
2019-01-13T06:18:21.813Z,4.37
2019-01-13T06:20:53.219Z,4.83
2019-01-13T06:26:26.003Z,4.50
2019-01-13T06:28:55.270Z,5.07
2019-01-13T06:31:47.577Z,4.23
2019-01-13T06:34:17.661Z,3.87
2019-01-13T06:36:47.507Z,4.37
2019-01-13T06:39:17.079Z,4.77
2019-01-13T06:41:46.815Z,4.03
2019-01-13T06:44:36.811Z,4.60
2019-01-13T06:52:31.048Z,3.63
2019-01-13T06:55:00.728Z,4.40
2019-01-13T06:57:30.563Z,4.20
2019-01-13T07:00:00.335Z,4.80
2019-01-13T07:02:30.188Z,4.10
2019-01-13T07:05:20.416Z,4.87
2019-01-13T07:07:50.374Z,4.70
2019-01-13T07:10:39.000Z,3.63
2019-01-13T07:13:08.661Z,4.37
2019-01-13T07:15:38.496Z,3.97
2019-01-13T07:18:08.473Z,4.03
2019-01-13T07:20:41.046Z,4.20
2019-01-13T07:23:10.675Z,4.73
2019-01-13T07:25:40.606Z,3.93
2019-01-13T07:28:10.408Z,3.93
2019-01-13T07:30:42.417Z,3.83
2019-01-13T07:33:12.310Z,4.50
2019-01-13T07:35:42.255Z,4.00
2019-01-13T07:38:33.333Z,4.33
2019-01-13T07:41:14.732Z,4.10
2019-01-13T07:43:44.283Z,4.37
2019-01-13T07:46:14.016Z,3.67
2019-01-13T07:48:43.660Z,4.30
2019-01-13T07:51:13.319Z,4.80
2019-01-13T07:53:48.744Z,4.20
2019-01-13T07:56:18.425Z,3.93
2019-01-13T08:01:37.866Z,4.10
2019-01-13T08:04:07.671Z,4.77
2019-01-13T08:06:37.603Z,5.00
2019-01-13T08:09:28.432Z,4.47
2019-01-13T08:11:58.885Z,4.17
2019-01-13T08:14:47.757Z,4.77
2019-01-13T08:20:32.737Z,4.83
2019-01-13T08:23:02.558Z,5.00
2019-01-13T08:25:51.243Z,4.70
2019-01-13T08:31:15.486Z,5.47
2019-01-13T08:33:45.253Z,4.97
2019-01-13T08:36:33.909Z,6.40
2019-01-13T08:39:05.449Z,4.50
2019-01-13T08:41:57.160Z,5.13
2019-01-13T08:44:27.076Z,5.27
2019-01-13T08:46:59.243Z,4.17
2019-01-13T08:49:28.972Z,4.30
2019-01-13T08:52:20.859Z,5.43
2019-01-13T08:54:50.520Z,4.27
2019-01-13T09:00:45.997Z,4.80
2019-01-13T09:03:07.631Z,4.37
2019-01-13T09:05:37.363Z,4.30
2019-01-13T09:08:16.770Z,4.83
2019-01-13T09:10:46.177Z,3.60
2019-01-13T09:13:35.070Z,5.47
2019-01-13T09:16:05.769Z,4.30
2019-01-13T09:18:35.275Z,3.70
2019-01-13T09:21:05.436Z,3.90
2019-01-13T09:23:37.230Z,3.97
2019-01-13T09:26:06.786Z,3.53
2019-01-13T09:28:56.179Z,3.17
2019-01-13T09:31:37.638Z,3.90
2019-01-13T09:34:07.065Z,3.70
2019-01-13T09:36:36.582Z,4.00
2019-01-13T09:39:11.364Z,3.37
2019-01-13T09:42:00.066Z,4.00
2019-01-13T09:44:29.565Z,3.80
2019-01-13T09:46:59.181Z,3.77
2019-01-13T09:49:50.055Z,3.60
2019-01-13T09:52:30.655Z,3.90
2019-01-13T09:55:05.577Z,3.67
2019-01-13T09:57:35.211Z,4.70
2019-01-13T10:00:06.741Z,3.60
2019-01-13T10:02:36.402Z,3.87
2019-01-13T10:05:06.722Z,3.73
2019-01-13T10:07:36.369Z,3.53
2019-01-13T10:10:08.759Z,4.60
2019-01-13T10:12:38.324Z,4.33
2019-01-13T10:15:11.049Z,4.00
2019-01-13T10:17:40.685Z,4.33
2019-01-13T10:26:04.966Z,4.07
2019-01-13T10:28:34.437Z,3.83
2019-01-13T10:31:04.280Z,3.43
2019-01-13T10:33:45.279Z,3.73
2019-01-13T10:36:14.884Z,3.73
2019-01-13T10:38:44.359Z,4.30
2019-01-13T10:41:33.099Z,4.20
2019-01-13T10:44:04.927Z,3.77
2019-01-13T10:46:34.450Z,4.53
2019-01-13T10:49:03.956Z,4.00
2019-01-13T10:51:33.484Z,4.30
2019-01-13T10:54:12.846Z,2.87
2019-01-13T10:56:34.752Z,3.10
2019-01-13T11:02:16.809Z,3.30
2019-01-13T11:04:57.734Z,3.80
2019-01-13T11:07:39.172Z,2.90
2019-01-13T11:10:09.862Z,3.10
2019-01-13T11:12:40.202Z,3.50
2019-01-13T11:15:28.762Z,3.40
2019-01-13T11:17:58.307Z,4.10
2019-01-13T11:20:58.737Z,3.50
2019-01-13T11:28:52.397Z,3.73
2019-01-13T11:31:21.916Z,3.20
2019-01-13T11:33:51.527Z,3.50
2019-01-13T11:36:21.056Z,3.37
2019-01-13T11:38:50.496Z,3.40
2019-01-13T11:41:19.945Z,3.27
2019-01-13T11:43:49.416Z,4.37
2019-01-13T11:46:18.854Z,2.60
2019-01-13T11:48:48.492Z,3.33
2019-01-13T11:53:53.046Z,3.10
2019-01-13T11:56:22.707Z,2.87
2019-01-13T11:59:04.353Z,2.67
2019-01-13T12:01:23.300Z,2.70
2019-01-13T12:04:11.630Z,3.53
2019-01-13T12:06:41.594Z,2.50
2019-01-13T12:11:53.561Z,3.17
2019-01-13T12:14:23.165Z,2.87
2019-01-13T12:16:52.763Z,3.13
2019-01-13T12:19:22.221Z,2.93
2019-01-13T12:21:51.756Z,2.50
2019-01-13T12:24:21.239Z,2.90
2019-01-13T12:26:50.816Z,2.90
2019-01-13T12:29:20.234Z,3.10
2019-01-13T12:31:51.194Z,2.77
2019-01-13T12:34:20.670Z,2.50
2019-01-13T12:36:50.100Z,4.00
2019-01-13T12:42:08.009Z,2.50
2019-01-13T12:44:37.436Z,2.90
2019-01-13T12:47:06.826Z,2.40
2019-01-13T12:49:36.367Z,2.77
2019-01-13T12:52:05.896Z,3.03
2019-01-13T12:54:35.331Z,2.60
2019-01-13T12:57:05.066Z,2.70
2019-01-13T12:59:34.568Z,2.77
2019-01-13T13:02:04.943Z,3.73
2019-01-13T13:04:34.404Z,2.90
2019-01-13T13:07:04.225Z,3.17
2019-01-13T13:09:33.905Z,4.13
2019-01-13T13:12:04.254Z,2.90
2019-01-13T13:14:33.899Z,2.53
2019-01-13T13:17:04.790Z,3.17
2019-01-13T13:19:34.346Z,2.67
2019-01-13T13:22:04.203Z,3.10
2019-01-13T13:27:22.457Z,2.90
2019-01-13T13:29:52.034Z,2.43
2019-01-13T13:32:21.472Z,2.10
2019-01-13T13:34:51.019Z,2.27
2019-01-13T13:37:20.452Z,2.40
2019-01-13T13:39:50.032Z,2.23
2019-01-13T13:42:19.586Z,2.20
2019-01-13T13:44:49.183Z,2.20
2019-01-13T13:47:18.659Z,2.40
2019-01-13T13:49:48.210Z,2.17
2019-01-13T13:52:17.737Z,2.30
2019-01-13T13:54:47.248Z,2.07
2019-01-13T13:57:16.872Z,2.40
2019-01-13T13:59:46.366Z,2.20
2019-01-13T14:02:15.953Z,2.00
2019-01-13T14:04:45.597Z,2.50
2019-01-13T14:07:15.033Z,2.50
2019-01-13T14:09:44.539Z,2.03
2019-01-13T14:12:14.129Z,2.27
2019-01-13T14:20:00.321Z,2.30
2019-01-13T14:22:33.204Z,2.60
2019-01-13T14:25:02.660Z,2.10
2019-01-13T14:27:32.065Z,2.53
2019-01-13T14:30:01.613Z,2.17
2019-01-13T14:32:31.242Z,2.57
2019-01-13T14:35:00.782Z,2.23
2019-01-13T14:37:30.341Z,2.40
2019-01-13T14:39:59.829Z,2.13
2019-01-13T14:42:29.301Z,2.83
2019-01-13T14:44:59.206Z,2.90
2019-01-13T14:47:28.679Z,3.30
2019-01-13T14:49:58.146Z,2.53
2019-01-13T14:52:27.638Z,3.17
2019-01-13T14:54:57.250Z,2.47
2019-01-13T14:57:26.904Z,3.00
2019-01-13T14:59:56.497Z,3.23
2019-01-13T15:02:30.842Z,2.90
2019-01-13T15:05:00.350Z,3.50
2019-01-13T15:07:30.021Z,3.10
2019-01-13T15:09:59.580Z,3.03
2019-01-13T15:12:31.871Z,3.10
2019-01-13T15:17:50.105Z,3.53
2019-01-13T15:20:20.826Z,2.87
2019-01-13T15:23:29.636Z,3.03
2019-01-13T15:26:13.589Z,2.60
2019-01-13T15:28:43.052Z,2.93
2019-01-13T15:31:12.475Z,3.10
2019-01-13T15:33:42.018Z,3.70
2019-01-13T15:36:11.551Z,3.27
2019-01-13T15:38:40.941Z,3.40
2019-01-13T15:41:10.404Z,3.10
2019-01-13T15:46:16.229Z,3.30
2019-01-13T15:54:41.150Z,3.00
2019-01-13T15:57:10.571Z,3.57
2019-01-13T15:59:40.129Z,4.17
2019-01-13T16:02:09.599Z,3.47
2019-01-13T16:04:39.036Z,3.17
2019-01-13T16:07:08.475Z,3.43
2019-01-13T16:09:37.925Z,3.50
2019-01-13T16:12:07.399Z,3.60
2019-01-13T16:14:37.460Z,4.40
2019-01-13T16:17:08.171Z,3.97
2019-01-13T16:19:39.310Z,3.93
2019-01-13T16:24:50.548Z,3.60
2019-01-13T16:27:20.027Z,3.77
2019-01-13T16:29:49.485Z,4.10
2019-01-13T16:32:19.344Z,4.60
2019-01-13T16:34:48.797Z,4.07
2019-01-13T16:37:18.223Z,5.10
2019-01-13T16:39:47.712Z,4.83
2019-01-13T16:42:17.170Z,4.10
2019-01-13T16:44:46.563Z,4.70
2019-01-13T16:47:18.597Z,4.03
2019-01-13T16:49:48.039Z,3.63
2019-01-13T16:52:17.589Z,4.97
2019-01-13T16:54:47.069Z,3.97
2019-01-13T16:57:16.590Z,4.20
2019-01-13T16:59:46.001Z,3.73
2019-01-13T17:02:15.460Z,4.03
2019-01-13T17:04:44.904Z,4.80
2019-01-13T17:07:14.335Z,3.80
2019-01-13T17:09:43.873Z,5.27
2019-01-13T17:12:13.297Z,4.40
2019-01-13T17:14:42.768Z,5.57
2019-01-13T17:19:47.139Z,4.70
2019-01-13T17:22:28.363Z,4.60
2019-01-13T17:24:58.237Z,6.00
2019-01-13T17:27:45.793Z,6.20
2019-01-13T17:30:18.324Z,6.03
2019-01-13T17:32:47.859Z,6.67
2019-01-13T17:35:17.384Z,6.10
2019-01-13T17:37:47.027Z,6.93
2019-01-13T17:40:18.353Z,6.90
2019-01-13T17:42:47.871Z,8.40
2019-01-13T17:45:18.541Z,6.60
2019-01-13T17:47:48.301Z,7.77
2019-01-13T17:50:19.510Z,8.23
2019-01-13T17:55:37.757Z,7.90
2019-01-13T17:58:07.642Z,8.23
2019-01-13T18:01:00.786Z,9.23
2019-01-13T18:06:32.184Z,7.80
2019-01-13T18:09:21.348Z,7.40
2019-01-13T18:11:51.221Z,7.50
2019-01-13T18:14:32.732Z,6.97
2019-01-13T18:17:06.389Z,5.80
2019-01-13T18:22:19.062Z,5.60
2019-01-13T18:24:48.474Z,5.73
2019-01-13T18:27:17.921Z,5.00
2019-01-13T18:29:47.448Z,4.97
2019-01-13T18:32:17.711Z,4.47
2019-01-13T18:34:50.369Z,5.20
2019-01-13T18:37:19.277Z,4.23
2019-01-13T18:43:01.493Z,3.67
2019-01-13T18:45:31.083Z,4.00
2019-01-13T18:48:00.684Z,3.33
2019-01-13T18:50:33.251Z,2.67
2019-01-13T18:53:05.990Z,2.70
2019-01-13T18:55:54.817Z,3.00
2019-01-13T18:58:24.529Z,2.57
2019-01-13T19:01:12.945Z,3.23
2019-01-13T19:03:42.410Z,2.53
2019-01-13T19:06:11.932Z,2.40
2019-01-13T19:08:41.509Z,2.70
2019-01-13T19:11:23.001Z,2.60
2019-01-13T19:14:30.862Z,2.60
2019-01-13T19:17:20.390Z,2.33
2019-01-13T19:20:10.871Z,2.33
2019-01-13T19:23:04.064Z,2.60
2019-01-13T19:25:35.415Z,2.57
2019-01-13T19:28:05.354Z,2.03
2019-01-13T19:30:35.347Z,2.63
2019-01-13T19:33:24.374Z,2.17
2019-01-13T19:39:08.545Z,1.70
2019-01-13T19:41:38.093Z,2.10
2019-01-13T19:44:07.591Z,1.43
2019-01-13T19:46:37.216Z,1.93
2019-01-13T19:49:06.721Z,1.80
2019-01-13T19:51:55.638Z,1.87
2019-01-13T19:54:26.148Z,1.90
2019-01-13T19:57:14.797Z,1.63
2019-01-13T19:59:56.056Z,2.50
2019-01-13T20:02:26.214Z,2.00
2019-01-13T20:05:47.375Z,1.60
2019-01-13T20:08:04.427Z,1.50
2019-01-13T20:10:34.206Z,2.40
2019-01-13T20:13:22.771Z,1.40
2019-01-13T20:15:52.483Z,1.30
2019-01-13T20:18:21.962Z,1.90
2019-01-13T20:21:10.678Z,1.73
2019-01-13T20:23:52.119Z,1.90
2019-01-13T20:26:22.332Z,1.67
2019-01-13T20:32:10.944Z,1.60
2019-01-13T20:37:37.227Z,1.73
2019-01-13T20:40:08.308Z,1.50
2019-01-13T20:42:57.113Z,2.10
2019-01-13T20:45:29.659Z,1.77
2019-01-13T20:48:18.147Z,1.60
2019-01-13T20:51:06.779Z,1.40
2019-01-13T20:53:39.386Z,1.50
2019-01-13T20:56:42.211Z,1.43
2019-01-13T20:58:59.381Z,1.50
2019-01-13T21:01:31.329Z,1.20
2019-01-13T21:04:00.777Z,1.20
2019-01-13T21:06:30.491Z,1.53
2019-01-13T21:09:00.171Z,1.20
2019-01-13T21:11:48.627Z,1.20
2019-01-13T21:14:37.271Z,1.10
2019-01-13T21:17:18.064Z,1.60
2019-01-13T21:19:48.387Z,1.10
2019-01-13T21:22:17.891Z,1.10
2019-01-13T21:24:47.374Z,1.13
2019-01-13T21:27:17.019Z,0.87
2019-01-13T21:29:46.941Z,1.27
2019-01-13T21:32:16.704Z,1.27
2019-01-13T21:34:48.361Z,1.17
2019-01-13T21:37:17.830Z,1.07
2019-01-13T21:39:47.547Z,1.10
2019-01-13T21:42:16.994Z,0.93
2019-01-13T21:44:49.774Z,1.50
2019-01-13T21:47:40.083Z,1.00
2019-01-13T21:50:21.465Z,1.20
2019-01-13T21:52:51.043Z,1.20
2019-01-13T21:55:20.631Z,0.97
2019-01-13T21:57:52.827Z,1.13
2019-01-13T22:00:41.361Z,0.83
2019-01-13T22:06:24.481Z,0.90
2019-01-13T22:09:12.996Z,1.13
2019-01-13T22:11:42.527Z,1.00
2019-01-13T22:14:51.877Z,1.13
2019-01-13T22:17:33.529Z,0.83
2019-01-13T22:23:24.377Z,1.30
2019-01-13T22:25:54.162Z,1.00
2019-01-13T22:28:24.061Z,1.10
2019-01-13T22:31:08.311Z,1.40
2019-01-13T22:33:28.793Z,1.03
2019-01-13T22:36:17.806Z,1.20
2019-01-13T22:38:47.281Z,1.13
2019-01-13T22:44:08.053Z,1.10
2019-01-13T22:46:41.503Z,1.40
2019-01-13T22:49:31.392Z,1.03
2019-01-13T22:57:47.668Z,0.70
2019-01-13T23:01:13.974Z,1.07
2019-01-13T23:03:43.409Z,1.00
2019-01-13T23:06:22.844Z,0.97
2019-01-13T23:08:52.808Z,0.97
2019-01-13T23:11:32.996Z,1.10
2019-01-13T23:14:02.447Z,1.13
2019-01-13T23:16:32.080Z,1.00
2019-01-13T23:19:01.659Z,0.80
2019-01-13T23:21:50.295Z,1.20
2019-01-13T23:24:19.857Z,1.03
2019-01-13T23:26:59.204Z,1.07
2019-01-13T23:29:29.705Z,0.80
2019-01-13T23:32:06.336Z,1.43
2019-01-13T23:34:56.076Z,0.90
2019-01-13T23:37:36.927Z,1.33
2019-01-13T23:40:06.662Z,1.00
2019-01-13T23:42:36.876Z,0.80
2019-01-13T23:45:06.757Z,0.80
2019-01-13T23:47:56.841Z,0.90
2019-01-13T23:50:26.634Z,1.43
2019-01-13T23:52:58.389Z,0.70
2019-01-13T23:55:46.387Z,0.90
2019-01-13T23:58:16.098Z,1.00
